aviador You're here:

KMNI Decoded Metar

MANNING in SC, USA
Report Time2017-04-28 00:15:00
UTC Time2017-04-28 00:24:06
Flight Rules vfr VFR
Wind160° at 18 kt
W.Decomp.*RWY 20: 14.9 kt HW 10.1 kt LCW
W.Rank160° ranks 18
Current wind is above 160° avg. (4.4)
Visibility9999 m
Phenomena:N/A
Clouds:Overcast 060 Hf
Expected CloudBase > 2,800 ft AGL from Temp-Dew spread
Ceiling6,000 ft
Temp23°C (ISA +8)
Dew Point16°C (65% RH)
AAT18.5°C
QNH1012 hPa
Density Alt1,335 ft
Elevation105 ft
Report Wrong Elevation
Raw Report
METAR KMNI 280015Z AUTO 16018KT 140V200 10SM OVC060 23/16 A2989 RMK
AO2 LTG DSNT W=

Extra information for KMNI:More info

Metar Taf Metar & Taf Last 4 Metars F.Rules Stats Wind Profile Meteogram Temp Stats Airport Information Weather charts Add Link Nearby VenuesMetar ALERT Operation Metar Decoded Social comments

AIRNAV info for KMNI